sensor_id;sensor_type;location;lat;lon;timestamp;pressure;altitude;pressure_sealevel;temperature;humidity
47809;BME280;33573;38.790;-77.084;2024-02-28T00:01:54;100763.43;;;19.24;27.21
47809;BME280;33573;38.790;-77.084;2024-02-28T00:04:20;100760.50;;;19.27;26.94
47809;BME280;33573;38.790;-77.084;2024-02-28T00:06:49;100761.35;;;19.00;26.99
47809;BME280;33573;38.790;-77.084;2024-02-28T00:09:11;100759.35;;;19.16;27.08
47809;BME280;33573;38.790;-77.084;2024-02-28T00:11:36;100759.62;;;19.18;27.19
47809;BME280;33573;38.790;-77.084;2024-02-28T00:14:06;100758.37;;;19.18;27.19
47809;BME280;33573;38.790;-77.084;2024-02-28T00:16:27;100756.47;;;19.11;27.33
47809;BME280;33573;38.790;-77.084;2024-02-28T00:18:52;100757.35;;;19.09;27.41
47809;BME280;33573;38.790;-77.084;2024-02-28T00:21:13;100761.52;;;19.13;27.54
47809;BME280;33573;38.790;-77.084;2024-02-28T00:23:43;100758.38;;;19.08;27.35
47809;BME280;33573;38.790;-77.084;2024-02-28T00:26:10;100760.55;;;19.12;27.49
47809;BME280;33573;38.790;-77.084;2024-02-28T00:28:38;100757.52;;;18.96;27.51
47809;BME280;33573;38.790;-77.084;2024-02-28T00:31:00;100756.93;;;19.00;27.21
47809;BME280;33573;38.790;-77.084;2024-02-28T00:33:25;100756.00;;;19.07;27.10
47809;BME280;33573;38.790;-77.084;2024-02-28T00:35:51;100753.79;;;19.52;27.18
47809;BME280;33573;38.790;-77.084;2024-02-28T00:38:16;100757.96;;;19.44;27.34
47809;BME280;33573;38.790;-77.084;2024-02-28T00:40:41;100760.71;;;19.28;27.41
47809;BME280;33573;38.790;-77.084;2024-02-28T00:43:11;100761.22;;;19.25;27.47
47809;BME280;33573;38.790;-77.084;2024-02-28T00:45:32;100762.04;;;19.32;27.46
47809;BME280;33573;38.790;-77.084;2024-02-28T00:47:58;100758.57;;;19.34;27.26
47809;BME280;33573;38.790;-77.084;2024-02-28T00:50:27;100757.54;;;19.06;27.13
47809;BME280;33573;38.790;-77.084;2024-02-28T00:52:49;100757.67;;;19.09;27.07
47809;BME280;33573;38.790;-77.084;2024-02-28T00:55:14;100755.88;;;19.36;27.38
47809;BME280;33573;38.790;-77.084;2024-02-28T00:57:44;100762.52;;;19.12;27.43
47809;BME280;33573;38.790;-77.084;2024-02-28T01:00:06;100770.25;;;19.28;27.38
47809;BME280;33573;38.790;-77.084;2024-02-28T01:02:25;100774.24;;;19.29;27.44
47809;BME280;33573;38.790;-77.084;2024-02-28T01:05:00;100773.18;;;19.12;27.26
47809;BME280;33573;38.790;-77.084;2024-02-28T01:07:22;100767.50;;;18.99;27.54
47809;BME280;33573;38.790;-77.084;2024-02-28T01:09:48;100769.31;;;19.29;27.31
47809;BME280;33573;38.790;-77.084;2024-02-28T01:12:17;100763.62;;;19.32;27.20
47809;BME280;33573;38.790;-77.084;2024-02-28T01:14:38;100766.44;;;19.35;27.35
47809;BME280;33573;38.790;-77.084;2024-02-28T01:17:04;100766.62;;;19.13;27.26
47809;BME280;33573;38.790;-77.084;2024-02-28T01:19:33;100765.97;;;19.15;27.26
47809;BME280;33573;38.790;-77.084;2024-02-28T01:21:54;100765.95;;;19.37;27.15
47809;BME280;33573;38.790;-77.084;2024-02-28T01:24:20;100773.45;;;19.37;27.14
47809;BME280;33573;38.790;-77.084;2024-02-28T01:26:49;100772.25;;;19.12;27.17
47809;BME280;33573;38.790;-77.084;2024-02-28T01:29:11;100775.60;;;19.62;27.21
47809;BME280;33573;38.790;-77.084;2024-02-28T01:31:37;100772.31;;;19.31;27.29
47809;BME280;33573;38.790;-77.084;2024-02-28T01:33:57;100777.98;;;19.30;27.48
47809;BME280;33573;38.790;-77.084;2024-02-28T01:36:27;100768.82;;;19.47;27.69
47809;BME280;33573;38.790;-77.084;2024-02-28T01:38:48;100764.99;;;19.32;27.42
47809;BME280;33573;38.790;-77.084;2024-02-28T01:41:22;100768.22;;;19.37;27.74
47809;BME280;33573;38.790;-77.084;2024-02-28T01:43:44;100771.34;;;19.37;27.26
47809;BME280;33573;38.790;-77.084;2024-02-28T01:46:20;100775.17;;;19.11;27.52
47809;BME280;33573;38.790;-77.084;2024-02-28T01:48:39;100782.08;;;19.37;27.39
47809;BME280;33573;38.790;-77.084;2024-02-28T01:50:55;100785.33;;;19.25;27.57
47809;BME280;33573;38.790;-77.084;2024-02-28T01:53:26;100780.07;;;19.43;27.40
47809;BME280;33573;38.790;-77.084;2024-02-28T01:55:55;100774.00;;;19.37;27.37
47809;BME280;33573;38.790;-77.084;2024-02-28T01:58:12;100777.07;;;19.39;27.31
47809;BME280;33573;38.790;-77.084;2024-02-28T02:00:42;100777.90;;;19.37;27.54
47809;BME280;33573;38.790;-77.084;2024-02-28T02:03:12;100773.91;;;19.07;27.72
47809;BME280;33573;38.790;-77.084;2024-02-28T02:05:33;100768.52;;;19.08;27.76
47809;BME280;33573;38.790;-77.084;2024-02-28T02:07:59;100768.54;;;19.48;27.65
47809;BME280;33573;38.790;-77.084;2024-02-28T02:10:28;100767.62;;;19.30;27.61
47809;BME280;33573;38.790;-77.084;2024-02-28T02:12:44;100768.61;;;19.32;27.51
47809;BME280;33573;38.790;-77.084;2024-02-28T02:15:15;100776.50;;;19.36;27.40
47809;BME280;33573;38.790;-77.084;2024-02-28T02:17:44;100776.96;;;19.42;27.40
47809;BME280;33573;38.790;-77.084;2024-02-28T02:20:07;100766.97;;;19.45;27.33
47809;BME280;33573;38.790;-77.084;2024-02-28T02:22:34;100760.92;;;19.26;27.51
47809;BME280;33573;38.790;-77.084;2024-02-28T02:25:02;100764.67;;;19.44;27.40
47809;BME280;33573;38.790;-77.084;2024-02-28T02:27:24;100770.89;;;19.23;27.28
47809;BME280;33573;38.790;-77.084;2024-02-28T02:29:47;100768.06;;;19.63;27.46
47809;BME280;33573;38.790;-77.084;2024-02-28T02:32:17;100763.83;;;19.17;27.41
47809;BME280;33573;38.790;-77.084;2024-02-28T02:34:38;100764.66;;;19.39;27.39
47809;BME280;33573;38.790;-77.084;2024-02-28T02:37:04;100766.85;;;19.39;27.49
47809;BME280;33573;38.790;-77.084;2024-02-28T02:39:29;100763.21;;;19.36;27.43
47809;BME280;33573;38.790;-77.084;2024-02-28T02:41:59;100763.42;;;19.12;27.49
47809;BME280;33573;38.790;-77.084;2024-02-28T02:44:20;100752.62;;;19.44;27.57
47809;BME280;33573;38.790;-77.084;2024-02-28T02:46:45;100759.52;;;19.42;27.40
47809;BME280;33573;38.790;-77.084;2024-02-28T02:49:15;100756.76;;;19.45;27.35
47809;BME280;33573;38.790;-77.084;2024-02-28T02:51:31;100752.61;;;19.27;27.24
47809;BME280;33573;38.790;-77.084;2024-02-28T02:54:02;100749.44;;;19.29;27.34
47809;BME280;33573;38.790;-77.084;2024-02-28T02:56:31;100747.97;;;19.48;27.47
47809;BME280;33573;38.790;-77.084;2024-02-28T02:58:49;100744.60;;;19.24;27.31
47809;BME280;33573;38.790;-77.084;2024-02-28T03:01:18;100740.52;;;19.23;27.55
47809;BME280;33573;38.790;-77.084;2024-02-28T03:03:44;100739.96;;;19.51;27.40
47809;BME280;33573;38.790;-77.084;2024-02-28T03:06:09;100740.16;;;19.45;27.34
47809;BME280;33573;38.790;-77.084;2024-02-28T03:08:35;100732.04;;;19.17;27.49
47809;BME280;33573;38.790;-77.084;2024-02-28T03:11:04;100730.56;;;19.61;27.92
47809;BME280;33573;38.790;-77.084;2024-02-28T03:13:20;100726.42;;;19.32;27.85
47809;BME280;33573;38.790;-77.084;2024-02-28T03:15:51;100722.31;;;19.08;27.86
47809;BME280;33573;38.790;-77.084;2024-02-28T03:18:21;100713.30;;;19.56;28.03
47809;BME280;33573;38.790;-77.084;2024-02-28T03:20:43;100715.37;;;19.04;27.95
47809;BME280;33573;38.790;-77.084;2024-02-28T03:23:07;100714.93;;;19.28;27.97
47809;BME280;33573;38.790;-77.084;2024-02-28T03:25:37;100724.71;;;19.11;27.70
47809;BME280;33573;38.790;-77.084;2024-02-28T03:27:58;100725.50;;;19.22;27.51
47809;BME280;33573;38.790;-77.084;2024-02-28T03:30:24;100728.10;;;19.45;27.55
47809;BME280;33573;38.790;-77.084;2024-02-28T03:32:54;100721.72;;;19.44;27.68
47809;BME280;33573;38.790;-77.084;2024-02-28T03:35:15;100712.98;;;19.13;27.80
47809;BME280;33573;38.790;-77.084;2024-02-28T03:37:40;100704.64;;;19.54;27.98
47809;BME280;33573;38.790;-77.084;2024-02-28T03:40:10;100693.42;;;19.55;28.00
47809;BME280;33573;38.790;-77.084;2024-02-28T03:42:31;100685.98;;;19.26;28.16
47809;BME280;33573;38.790;-77.084;2024-02-28T03:44:57;100695.28;;;19.28;28.33
47809;BME280;33573;38.790;-77.084;2024-02-28T03:47:17;100695.32;;;19.32;28.45
47809;BME280;33573;38.790;-77.084;2024-02-28T03:49:48;100687.06;;;19.04;28.46
47809;BME280;33573;38.790;-77.084;2024-02-28T03:52:13;100680.11;;;19.20;28.40
47809;BME280;33573;38.790;-77.084;2024-02-28T03:54:43;100676.02;;;19.43;28.34
47809;BME280;33573;38.790;-77.084;2024-02-28T03:57:04;100681.17;;;19.48;28.50
47809;BME280;33573;38.790;-77.084;2024-02-28T03:59:30;100680.66;;;19.47;28.54
47809;BME280;33573;38.790;-77.084;2024-02-28T04:01:50;100672.53;;;19.28;28.18
47809;BME280;33573;38.790;-77.084;2024-02-28T04:04:21;100675.31;;;19.31;28.39
47809;BME280;33573;38.790;-77.084;2024-02-28T04:06:46;100685.08;;;19.30;28.41
47809;BME280;33573;38.790;-77.084;2024-02-28T04:09:06;100689.82;;;19.30;28.18
47809;BME280;33573;38.790;-77.084;2024-02-28T04:11:38;100691.49;;;19.06;28.43
47809;BME280;33573;38.790;-77.084;2024-02-28T04:14:02;100689.32;;;19.24;28.42
47809;BME280;33573;38.790;-77.084;2024-02-28T04:16:32;100684.58;;;19.18;28.64
47809;BME280;33573;38.790;-77.084;2024-02-28T04:18:53;100669.31;;;19.18;28.70
47809;BME280;33573;38.790;-77.084;2024-02-28T04:21:19;100663.12;;;19.14;28.53
47809;BME280;33573;38.790;-77.084;2024-02-28T04:23:48;100664.29;;;19.04;28.64
47809;BME280;33573;38.790;-77.084;2024-02-28T04:26:10;100656.00;;;19.22;28.61
47809;BME280;33573;38.790;-77.084;2024-02-28T04:28:35;100659.19;;;19.40;28.74
47809;BME280;33573;38.790;-77.084;2024-02-28T04:31:05;100661.38;;;19.14;28.72
47809;BME280;33573;38.790;-77.084;2024-02-28T04:33:26;100659.50;;;19.30;28.82
47809;BME280;33573;38.790;-77.084;2024-02-28T04:35:52;100658.47;;;19.16;28.69
47809;BME280;33573;38.790;-77.084;2024-02-28T04:38:12;100655.56;;;19.20;28.57
47809;BME280;33573;38.790;-77.084;2024-02-28T04:40:43;100650.41;;;19.19;28.61
47809;BME280;33573;38.790;-77.084;2024-02-28T04:43:08;100649.30;;;19.15;28.67
47809;BME280;33573;38.790;-77.084;2024-02-28T04:45:29;100651.64;;;19.42;28.62
47809;BME280;33573;38.790;-77.084;2024-02-28T04:47:59;100651.61;;;19.31;28.76
47809;BME280;33573;38.790;-77.084;2024-02-28T04:50:25;100644.94;;;19.33;28.65
47809;BME280;33573;38.790;-77.084;2024-02-28T04:52:54;100637.89;;;19.08;28.74
47809;BME280;33573;38.790;-77.084;2024-02-28T04:55:16;100628.89;;;19.08;28.77
47809;BME280;33573;38.790;-77.084;2024-02-28T04:57:41;100626.05;;;18.92;28.92
47809;BME280;33573;38.790;-77.084;2024-02-28T05:00:02;100621.13;;;19.23;28.82
47809;BME280;33573;38.790;-77.084;2024-02-28T05:02:32;100607.16;;;19.02;28.78
47809;BME280;33573;38.790;-77.084;2024-02-28T05:04:57;100598.02;;;19.30;28.83
47809;BME280;33573;38.790;-77.084;2024-02-28T05:07:23;100593.07;;;18.71;28.94
47809;BME280;33573;38.790;-77.084;2024-02-28T05:09:53;100586.08;;;19.05;28.79
47809;BME280;33573;38.790;-77.084;2024-02-28T05:12:14;100584.56;;;19.00;28.88
47809;BME280;33573;38.790;-77.084;2024-02-28T05:14:34;100588.04;;;19.29;28.81
47809;BME280;33573;38.790;-77.084;2024-02-28T05:17:05;100583.81;;;19.04;28.75
47809;BME280;33573;38.790;-77.084;2024-02-28T05:19:30;100575.51;;;19.03;28.68
47809;BME280;33573;38.790;-77.084;2024-02-28T05:21:51;100573.14;;;19.01;28.69
47809;BME280;33573;38.790;-77.084;2024-02-28T05:24:25;100563.20;;;19.01;28.70
47809;BME280;33573;38.790;-77.084;2024-02-28T05:26:47;100565.09;;;18.97;28.80
47809;BME280;33573;38.790;-77.084;2024-02-28T05:29:13;100555.56;;;18.95;28.83
47809;BME280;33573;38.790;-77.084;2024-02-28T05:31:42;100545.10;;;18.82;29.06
47809;BME280;33573;38.790;-77.084;2024-02-28T05:34:03;100554.72;;;19.08;28.90
47809;BME280;33573;38.790;-77.084;2024-02-28T05:36:30;100560.29;;;19.13;28.90
47809;BME280;33573;38.790;-77.084;2024-02-28T05:38:49;100561.59;;;19.18;28.85
47809;BME280;33573;38.790;-77.084;2024-02-28T05:41:19;100564.84;;;19.11;28.91
47809;BME280;33573;38.790;-77.084;2024-02-28T05:43:46;100571.07;;;18.88;28.91
47809;BME280;33573;38.790;-77.084;2024-02-28T05:46:05;100571.11;;;19.16;28.78
47809;BME280;33573;38.790;-77.084;2024-02-28T05:48:36;100557.94;;;19.11;28.84
47809;BME280;33573;38.790;-77.084;2024-02-28T05:50:56;100540.60;;;19.15;28.80
47809;BME280;33573;38.790;-77.084;2024-02-28T05:53:31;100538.04;;;19.17;28.77
47809;BME280;33573;38.790;-77.084;2024-02-28T05:55:52;100540.44;;;19.16;28.75
47809;BME280;33573;38.790;-77.084;2024-02-28T05:58:17;100530.01;;;18.82;28.85
47809;BME280;33573;38.790;-77.084;2024-02-28T06:00:47;100535.73;;;19.11;28.81
47809;BME280;33573;38.790;-77.084;2024-02-28T06:03:08;100523.44;;;18.80;28.93
47809;BME280;33573;38.790;-77.084;2024-02-28T06:05:29;100512.70;;;18.83;28.85
47809;BME280;33573;38.790;-77.084;2024-02-28T06:08:04;100493.41;;;19.05;28.93
47809;BME280;33573;38.790;-77.084;2024-02-28T06:10:25;100472.10;;;19.07;28.85
47809;BME280;33573;38.790;-77.084;2024-02-28T06:12:51;100481.88;;;19.10;28.82
47809;BME280;33573;38.790;-77.084;2024-02-28T06:15:20;100485.61;;;19.05;28.80
47809;BME280;33573;38.790;-77.084;2024-02-28T06:17:41;100490.09;;;19.11;28.72
47809;BME280;33573;38.790;-77.084;2024-02-28T06:20:08;100496.02;;;19.02;28.78
47809;BME280;33573;38.790;-77.084;2024-02-28T06:22:36;100494.87;;;18.86;28.73
47809;BME280;33573;38.790;-77.084;2024-02-28T06:24:58;100495.85;;;18.81;28.78
47809;BME280;33573;38.790;-77.084;2024-02-28T06:27:18;100501.36;;;18.77;28.80
47809;BME280;33573;38.790;-77.084;2024-02-28T06:29:53;100499.74;;;18.80;28.81
47809;BME280;33573;38.790;-77.084;2024-02-28T06:32:14;100496.07;;;18.93;28.92
47809;BME280;33573;38.790;-77.084;2024-02-28T06:34:40;100489.42;;;18.89;28.98
47809;BME280;33573;38.790;-77.084;2024-02-28T06:37:10;100484.91;;;18.93;28.86
47809;BME280;33573;38.790;-77.084;2024-02-28T06:39:31;100487.40;;;18.69;28.90
47809;BME280;33573;38.790;-77.084;2024-02-28T06:41:51;100488.42;;;18.98;28.83
47809;BME280;33573;38.790;-77.084;2024-02-28T06:44:22;100489.75;;;18.90;28.92
47809;BME280;33573;38.790;-77.084;2024-02-28T06:46:47;100489.32;;;19.05;28.73
47809;BME280;33573;38.790;-77.084;2024-02-28T06:49:13;100479.70;;;19.00;28.71
47809;BME280;33573;38.790;-77.084;2024-02-28T06:51:43;100469.71;;;18.77;28.75
47809;BME280;33573;38.790;-77.084;2024-02-28T06:53:58;100455.02;;;18.90;28.84
47809;BME280;33573;38.790;-77.084;2024-02-28T06:56:29;100443.33;;;18.98;28.75
47809;BME280;33573;38.790;-77.084;2024-02-28T06:58:59;100445.33;;;18.86;28.91
47809;BME280;33573;38.790;-77.084;2024-02-28T07:01:20;100442.43;;;18.81;28.94
47809;BME280;33573;38.790;-77.084;2024-02-28T07:03:40;100426.24;;;18.65;28.91
47809;BME280;33573;38.790;-77.084;2024-02-28T07:06:15;100413.90;;;18.98;28.81
47809;BME280;33573;38.790;-77.084;2024-02-28T07:08:36;100413.13;;;18.68;28.85
47809;BME280;33573;38.790;-77.084;2024-02-28T07:11:02;100414.39;;;18.79;28.98
47809;BME280;33573;38.790;-77.084;2024-02-28T07:13:32;100419.15;;;18.84;29.01
47809;BME280;33573;38.790;-77.084;2024-02-28T07:15:53;100432.89;;;18.93;28.88
47809;BME280;33573;38.790;-77.084;2024-02-28T07:18:18;100428.15;;;18.78;29.03
47809;BME280;33573;38.790;-77.084;2024-02-28T07:20:48;100423.24;;;18.79;28.97
47809;BME280;33573;38.790;-77.084;2024-02-28T07:23:09;100414.04;;;18.88;28.91
47809;BME280;33573;38.790;-77.084;2024-02-28T07:25:34;100417.39;;;18.86;28.88
47809;BME280;33573;38.790;-77.084;2024-02-28T07:28:04;100412.16;;;18.84;28.88
47809;BME280;33573;38.790;-77.084;2024-02-28T07:30:25;100419.85;;;18.81;28.94
47809;BME280;33573;38.790;-77.084;2024-02-28T07:32:46;100420.94;;;18.93;28.83
47809;BME280;33573;38.790;-77.084;2024-02-28T07:35:16;100423.04;;;18.85;28.94
47809;BME280;33573;38.790;-77.084;2024-02-28T07:37:46;100421.85;;;18.78;29.00
47809;BME280;33573;38.790;-77.084;2024-02-28T07:40:02;100428.34;;;18.73;29.06
47809;BME280;33573;38.790;-77.084;2024-02-28T07:42:33;100416.25;;;18.46;29.13
47809;BME280;33573;38.790;-77.084;2024-02-28T07:44:58;100420.99;;;18.76;29.09
47809;BME280;33573;38.790;-77.084;2024-02-28T07:47:24;100430.99;;;18.73;29.10
47809;BME280;33573;38.790;-77.084;2024-02-28T07:49:44;100433.99;;;18.81;28.99
47809;BME280;33573;38.790;-77.084;2024-02-28T07:52:15;100433.69;;;18.73;29.12
47809;BME280;33573;38.790;-77.084;2024-02-28T07:54:42;100441.94;;;18.52;29.02
47809;BME280;33573;38.790;-77.084;2024-02-28T07:57:06;100431.78;;;18.68;29.05
47809;BME280;33573;38.790;-77.084;2024-02-28T07:59:38;100426.55;;;18.71;29.01
47809;BME280;33573;38.790;-77.084;2024-02-28T08:01:57;100420.20;;;18.65;29.00
47809;BME280;33573;38.790;-77.084;2024-02-28T08:04:22;100421.23;;;18.71;28.93
47809;BME280;33573;38.790;-77.084;2024-02-28T08:06:52;100419.13;;;18.79;28.92
47809;BME280;33573;38.790;-77.084;2024-02-28T08:09:13;100415.53;;;18.56;28.94
47809;BME280;33573;38.790;-77.084;2024-02-28T08:11:39;100408.92;;;18.74;29.08
47809;BME280;33573;38.790;-77.084;2024-02-28T08:14:04;100418.11;;;18.60;28.97
47809;BME280;33573;38.790;-77.084;2024-02-28T08:16:24;100421.92;;;18.62;29.17
47809;BME280;33573;38.790;-77.084;2024-02-28T08:18:55;100419.29;;;18.72;29.06
47809;BME280;33573;38.790;-77.084;2024-02-28T08:21:25;100412.81;;;18.64;29.11
47809;BME280;33573;38.790;-77.084;2024-02-28T08:23:46;100412.79;;;18.40;29.19
47809;BME280;33573;38.790;-77.084;2024-02-28T08:26:07;100415.48;;;18.64;29.19
47809;BME280;33573;38.790;-77.084;2024-02-28T08:28:41;100407.46;;;18.77;29.02
47809;BME280;33573;38.790;-77.084;2024-02-28T08:31:03;100400.70;;;18.52;29.27
47809;BME280;33573;38.790;-77.084;2024-02-28T08:33:28;100404.64;;;18.63;29.03
47809;BME280;33573;38.790;-77.084;2024-02-28T08:35:53;100388.28;;;18.78;28.93
47809;BME280;33573;38.790;-77.084;2024-02-28T08:38:19;100384.00;;;18.90;28.75
47809;BME280;33573;38.790;-77.084;2024-02-28T08:40:45;100366.19;;;18.83;28.91
47809;BME280;33573;38.790;-77.084;2024-02-28T08:43:05;100379.63;;;18.54;28.82
47809;BME280;33573;38.790;-77.084;2024-02-28T08:45:35;100378.93;;;18.75;28.89
47809;BME280;33573;38.790;-77.084;2024-02-28T08:48:01;100372.65;;;18.80;28.81
47809;BME280;33573;38.790;-77.084;2024-02-28T08:50:30;100357.95;;;18.95;29.02
47809;BME280;33573;38.790;-77.084;2024-02-28T08:52:52;100346.19;;;18.56;28.95
47809;BME280;33573;38.790;-77.084;2024-02-28T08:55:12;100346.49;;;18.76;29.01
47809;BME280;33573;38.790;-77.084;2024-02-28T08:57:47;100344.23;;;18.70;29.08
47809;BME280;33573;38.790;-77.084;2024-02-28T09:00:09;100348.07;;;18.70;29.05
47809;BME280;33573;38.790;-77.084;2024-02-28T09:02:34;100344.41;;;18.63;29.13
47809;BME280;33573;38.790;-77.084;2024-02-28T09:05:04;100343.46;;;18.59;29.15
47809;BME280;33573;38.790;-77.084;2024-02-28T09:07:25;100352.02;;;18.66;29.07
47809;BME280;33573;38.790;-77.084;2024-02-28T09:09:45;100348.68;;;18.50;28.98
47809;BME280;33573;38.790;-77.084;2024-02-28T09:12:20;100353.91;;;18.75;28.82
47809;BME280;33573;38.790;-77.084;2024-02-28T09:14:36;100362.42;;;18.85;28.83
47809;BME280;33573;38.790;-77.084;2024-02-28T09:17:06;100356.77;;;18.56;28.79
47809;BME280;33573;38.790;-77.084;2024-02-28T09:19:36;100347.46;;;18.64;28.97
47809;BME280;33573;38.790;-77.084;2024-02-28T09:21:57;100345.18;;;18.36;29.07
47809;BME280;33573;38.790;-77.084;2024-02-28T09:24:23;100345.14;;;18.67;28.97
47809;BME280;33573;38.790;-77.084;2024-02-28T09:26:53;100333.14;;;18.69;28.99
47809;BME280;33573;38.790;-77.084;2024-02-28T09:29:14;100319.04;;;18.59;29.09
47809;BME280;33573;38.790;-77.084;2024-02-28T09:31:39;100314.63;;;18.67;29.05
47809;BME280;33573;38.790;-77.084;2024-02-28T09:34:00;100313.44;;;18.63;29.08
47809;BME280;33573;38.790;-77.084;2024-02-28T09:36:30;100321.31;;;18.76;28.97
47809;BME280;33573;38.790;-77.084;2024-02-28T09:38:56;100304.68;;;18.47;28.96
47809;BME280;33573;38.790;-77.084;2024-02-28T09:41:21;100302.19;;;18.67;29.02
47809;BME280;33573;38.790;-77.084;2024-02-28T09:43:51;100302.67;;;18.55;28.78
47809;BME280;33573;38.790;-77.084;2024-02-28T09:46:14;100304.99;;;18.81;28.88
47809;BME280;33573;38.790;-77.084;2024-02-28T09:48:40;100305.25;;;18.83;28.78
47809;BME280;33573;38.790;-77.084;2024-02-28T09:51:08;100310.76;;;18.83;28.76
47809;BME280;33573;38.790;-77.084;2024-02-28T09:53:29;100304.03;;;18.76;28.84
47809;BME280;33573;38.790;-77.084;2024-02-28T09:55:54;100294.94;;;18.77;28.81
47809;BME280;33573;38.790;-77.084;2024-02-28T09:58:23;100294.97;;;18.81;28.80
47809;BME280;33573;38.790;-77.084;2024-02-28T10:00:45;100288.89;;;18.75;28.94
47809;BME280;33573;38.790;-77.084;2024-02-28T10:03:11;100283.15;;;18.75;28.88
47809;BME280;33573;38.790;-77.084;2024-02-28T10:05:40;100288.02;;;18.66;29.03
47809;BME280;33573;38.790;-77.084;2024-02-28T10:08:01;100278.85;;;18.76;28.94
47809;BME280;33573;38.790;-77.084;2024-02-28T10:10:22;100268.55;;;18.58;29.11
47809;BME280;33573;38.790;-77.084;2024-02-28T10:12:57;100270.03;;;18.56;28.85
47809;BME280;33573;38.790;-77.084;2024-02-28T10:15:18;100270.14;;;18.79;28.84
47809;BME280;33573;38.790;-77.084;2024-02-28T10:17:43;100263.50;;;18.48;28.91
47809;BME280;33573;38.790;-77.084;2024-02-28T10:20:13;100262.90;;;18.78;28.82
47809;BME280;33573;38.790;-77.084;2024-02-28T10:22:35;100258.80;;;18.70;28.89
47809;BME280;33573;38.790;-77.084;2024-02-28T10:25:00;100253.34;;;18.85;28.98
47809;BME280;33573;38.790;-77.084;2024-02-28T10:27:21;100252.97;;;18.66;28.97
47809;BME280;33573;38.790;-77.084;2024-02-28T10:29:51;100242.05;;;18.58;29.10
47809;BME280;33573;38.790;-77.084;2024-02-28T10:32:12;100235.25;;;18.66;29.05
47809;BME280;33573;38.790;-77.084;2024-02-28T10:34:46;100229.63;;;18.66;29.12
47809;BME280;33573;38.790;-77.084;2024-02-28T10:37:08;100223.36;;;18.63;29.18
47809;BME280;33573;38.790;-77.084;2024-02-28T10:39:34;100229.86;;;18.73;29.04
47809;BME280;33573;38.790;-77.084;2024-02-28T10:42:03;100225.61;;;18.70;29.07
47809;BME280;33573;38.790;-77.084;2024-02-28T10:44:24;100233.39;;;18.72;28.94
47809;BME280;33573;38.790;-77.084;2024-02-28T10:46:50;100236.31;;;18.78;28.76
47809;BME280;33573;38.790;-77.084;2024-02-28T10:49:19;100223.21;;;18.68;28.56
47809;BME280;33573;38.790;-77.084;2024-02-28T10:51:45;100218.29;;;18.80;28.43
47809;BME280;33573;38.790;-77.084;2024-02-28T10:54:09;100222.77;;;19.09;28.41
47809;BME280;33573;38.790;-77.084;2024-02-28T10:56:28;100239.11;;;19.08;28.42
47809;BME280;33573;38.790;-77.084;2024-02-28T10:58:53;100238.76;;;19.06;28.52
47809;BME280;33573;38.790;-77.084;2024-02-28T11:01:22;100238.06;;;18.81;28.61
47809;BME280;33573;38.790;-77.084;2024-02-28T11:03:52;100228.46;;;18.83;28.62
47809;BME280;33573;38.790;-77.084;2024-02-28T11:06:19;100223.65;;;18.89;28.67
47809;BME280;33573;38.790;-77.084;2024-02-28T11:08:33;100206.76;;;19.02;28.75
47809;BME280;33573;38.790;-77.084;2024-02-28T11:11:08;100208.65;;;19.04;28.55
47809;BME280;33573;38.790;-77.084;2024-02-28T11:13:30;100214.46;;;18.86;28.41
47809;BME280;33573;38.790;-77.084;2024-02-28T11:15:55;100215.71;;;18.85;28.44
47809;BME280;33573;38.790;-77.084;2024-02-28T11:18:25;100224.70;;;19.13;28.41
47809;BME280;33573;38.790;-77.084;2024-02-28T11:20:46;100230.77;;;19.14;28.42
47809;BME280;33573;38.790;-77.084;2024-02-28T11:23:12;100226.85;;;18.87;28.67
47809;BME280;33573;38.790;-77.084;2024-02-28T11:25:41;100221.79;;;19.00;28.77
47809;BME280;33573;38.790;-77.084;2024-02-28T11:28:03;100209.71;;;18.91;28.73
47809;BME280;33573;38.790;-77.084;2024-02-28T11:30:28;100188.84;;;19.15;28.81
47809;BME280;33573;38.790;-77.084;2024-02-28T11:32:53;100175.85;;;19.18;29.22
47809;BME280;33573;38.790;-77.084;2024-02-28T11:35:19;100183.29;;;19.21;29.05
47809;BME280;33573;38.790;-77.084;2024-02-28T11:37:39;100186.40;;;18.91;29.22
47809;BME280;33573;38.790;-77.084;2024-02-28T11:40:14;100196.30;;;18.84;29.11
47809;BME280;33573;38.790;-77.084;2024-02-28T11:42:35;100205.77;;;19.16;28.69
47809;BME280;33573;38.790;-77.084;2024-02-28T11:45:01;100200.69;;;19.08;28.84
47809;BME280;33573;38.790;-77.084;2024-02-28T11:47:30;100209.51;;;18.86;28.79
47809;BME280;33573;38.790;-77.084;2024-02-28T11:49:51;100217.02;;;19.12;28.75
47809;BME280;33573;38.790;-77.084;2024-02-28T11:52:17;100225.47;;;18.90;28.82
47809;BME280;33573;38.790;-77.084;2024-02-28T11:54:37;100216.64;;;19.14;28.98
47809;BME280;33573;38.790;-77.084;2024-02-28T11:57:08;100199.77;;;19.11;29.10
47809;BME280;33573;38.790;-77.084;2024-02-28T11:59:33;100202.97;;;18.91;29.15
47809;BME280;33573;38.790;-77.084;2024-02-28T12:01:59;100208.79;;;18.99;29.14
47809;BME280;33573;38.790;-77.084;2024-02-28T12:04:29;100201.43;;;19.19;29.21
47809;BME280;33573;38.790;-77.084;2024-02-28T12:06:50;100199.55;;;18.83;31.06
47809;BME280;33573;38.790;-77.084;2024-02-28T12:09:15;100215.48;;;19.09;30.97
47809;BME280;33573;38.790;-77.084;2024-02-28T12:11:45;100217.12;;;19.13;30.27
47809;BME280;33573;38.790;-77.084;2024-02-28T12:14:07;100220.87;;;18.91;30.29
47809;BME280;33573;38.790;-77.084;2024-02-28T12:16:27;100216.98;;;19.19;30.13
47809;BME280;33573;38.790;-77.084;2024-02-28T12:19:03;100216.61;;;19.14;30.31
47809;BME280;33573;38.790;-77.084;2024-02-28T12:21:23;100211.02;;;18.91;30.15